Moses Lake, WA (98837)

2:54 PM PST on February 26, 2015 (GMT -0800)
Civic Center | Change Station
CLOSE
Current Station
Personal Weather Station
Location: Moses Lake, WA
Elevation: 1050 ft
Nearby Weather Stations

Elev 1050 ft 47.13 °N, 119.27 °W | Updated 28 seconds ago

Overcast
Overcast
51.0 °F
Feels Like 51.0 °F
N
2.0
Wind Variable Wind from SW
Gusts 9.0 mph

Today
High -- | Low -- °F
--% Chance of Precip.
Yesterday
High -- | Low -- °F
Precip. -- in
6:42 AM 5:37 PM
Waxing Gibbous, 63% visible
Pressure 30.21 in
Visibility 10.0 miles
Clouds Few 4200 ft
Mostly Cloudy 8000 ft
Overcast 10000 ft
Dew Point 34 °F
Humidity 51%
Rainfall 0.00 in
Snow Depth Not available.
UV 1 out of 12
Pollen 5.30 out of 12
Air Quality Not available.
Flu Activity Not available.
METAR KMWH 262152Z 00000KT 10SM FEW042 BKN080 OVC100 10/00 A3005 RMK AO2 SLP228 T01000000

More Conditions Fewer Conditions

Pressure 30.21 in
Visibility 10.0 miles
Clouds Few 4200 ft
Mostly Cloudy 8000 ft
Overcast 10000 ft
Dew Point 34 °F
Humidity 51%
Rainfall 0.00 in
Snow Depth Not available.
UV 1 out of 12
Pollen 5.30 out of 12
Air Quality Not available.
Flu Activity Not available.
METAR KMWH 262152Z 00000KT 10SM FEW042 BKN080 OVC100 10/00 A3005 RMK AO2 SLP228 T01000000

More Conditions Fewer Conditions

10-Day Weather Forecast

Almanac

Astronomy

Feb. 26, 2015 Rise Set
Actual Time
Civil Twilight
Nautical Twilight
Astronomical Twilight
Moon
Length of Visible Light
Length of Day
Tomorrow will be .
, % of the Moon is Illuminated

Today's Extremes

State Highs State Lows

Community

WunderPhotos

Upload Photos

1,800,546 photos uploaded!

WunderBlogs® & News

Nearby

Air Quality

  Air Quality AQ Index Pollutant
Not available.

Snow Depth

Station Depth Elevation

Earthquake Activity

City Distance Mag. Time & Date
Minimum magnitude displayed is 2.5.

Coastal Water Temperatures

Place Temperature

Nearby Weather Stations